createdAt,value
2023-04-04T00:00:54.004Z,2.67
2023-04-04T00:03:21.405Z,2.85
2023-04-04T00:05:48.998Z,2.55
2023-04-04T00:08:16.660Z,2.78
2023-04-04T00:10:43.804Z,2.38
2023-04-04T00:13:11.345Z,3.15
2023-04-04T00:15:38.497Z,2.80
2023-04-04T00:18:06.181Z,2.35
2023-04-04T00:20:33.557Z,2.60
2023-04-04T00:23:00.845Z,2.80
2023-04-04T00:25:28.142Z,2.72
2023-04-04T00:28:01.114Z,2.95
2023-04-04T00:30:29.407Z,3.22
2023-04-04T00:33:52.960Z,3.47
2023-04-04T00:37:54.116Z,2.95
2023-04-04T03:04:43.727Z,3.00
2023-04-04T03:07:29.579Z,3.70
2023-04-04T03:09:57.191Z,3.40
2023-04-04T03:12:24.592Z,3.00
2023-04-04T03:14:51.801Z,3.33
2023-04-04T03:17:18.974Z,2.97
2023-04-04T03:19:47.029Z,3.80
2023-04-04T03:22:14.266Z,3.20
2023-04-04T03:24:41.461Z,2.90
2023-04-04T03:27:08.802Z,3.35
2023-04-04T03:29:36.050Z,2.85
2023-04-04T03:32:22.730Z,3.42
2023-04-04T03:35:08.948Z,3.22
2023-04-04T03:37:36.329Z,3.03
2023-04-04T03:40:03.942Z,2.95
2023-04-04T03:42:35.024Z,3.80
2023-04-04T03:45:08.583Z,3.90
2023-04-04T03:47:37.212Z,4.40
2023-04-04T03:50:04.785Z,3.55
2023-04-04T03:52:38.913Z,3.63
2023-04-04T03:55:07.821Z,4.38
2023-04-04T03:57:36.487Z,4.38
2023-04-04T04:00:06.166Z,3.65
2023-04-04T04:02:40.302Z,4.88
2023-04-04T04:05:09.793Z,4.10
2023-04-04T04:07:37.264Z,4.00
2023-04-04T04:10:05.647Z,3.92
2023-04-04T05:08:39.368Z,3.88
2023-04-04T05:11:18.449Z,4.18
2023-04-04T05:13:45.694Z,4.07
2023-04-04T05:16:13.989Z,4.15
2023-04-04T05:18:44.610Z,4.60
2023-04-04T05:21:12.147Z,3.60
2023-04-04T05:23:39.552Z,3.50
2023-04-04T05:26:08.666Z,3.40
2023-04-04T05:28:40.607Z,4.13
2023-04-04T05:31:07.929Z,4.95
2023-04-04T05:33:36.707Z,4.22
2023-04-04T05:37:00.857Z,4.18
2023-04-04T05:40:32.779Z,3.22
2023-04-04T07:21:51.365Z,5.70
2023-04-04T07:24:18.613Z,5.70
2023-04-04T07:26:46.095Z,7.07
2023-04-04T07:29:13.962Z,7.78
2023-04-04T07:31:41.148Z,7.10
2023-04-04T07:34:08.732Z,6.55
2023-04-04T07:36:36.073Z,6.85
2023-04-04T07:39:03.732Z,6.75
2023-04-04T07:41:31.419Z,6.45
2023-04-04T07:43:58.676Z,7.22
2023-04-04T07:46:27.712Z,5.70
2023-04-04T07:48:54.807Z,7.82
2023-04-04T07:51:29.025Z,6.03
2023-04-04T07:53:57.258Z,5.28
2023-04-04T07:56:24.472Z,5.93
2023-04-04T07:58:51.696Z,5.93
2023-04-04T08:01:18.946Z,6.25
2023-04-04T08:03:46.354Z,4.93
2023-04-04T08:06:13.733Z,5.78
2023-04-04T08:08:41.291Z,5.75
2023-04-04T08:11:08.509Z,4.75
2023-04-04T08:13:36.074Z,6.03
2023-04-04T08:16:03.407Z,4.85
2023-04-04T08:18:30.522Z,4.68
2023-04-04T08:20:57.645Z,4.70
2023-04-04T08:23:24.831Z,3.92
2023-04-04T08:25:52.414Z,4.65
2023-04-04T08:28:19.661Z,5.07
2023-04-04T08:30:47.298Z,4.20
2023-04-04T08:33:14.583Z,4.10
2023-04-04T08:35:41.945Z,4.53
2023-04-04T08:38:09.133Z,4.13
2023-04-04T08:40:37.314Z,5.10
2023-04-04T08:43:06.512Z,4.88
2023-04-04T08:45:35.013Z,6.07
2023-04-04T08:48:05.159Z,5.03
2023-04-04T08:50:33.921Z,4.07
2023-04-04T08:53:04.794Z,4.35
2023-04-04T08:55:33.066Z,4.35
2023-04-04T08:58:00.746Z,5.53
2023-04-04T09:00:28.120Z,4.38
2023-04-04T09:03:10.927Z,4.22
2023-04-04T09:05:38.697Z,5.45
2023-04-04T09:08:07.527Z,4.95
2023-04-04T09:10:36.138Z,3.92
2023-04-04T09:13:14.964Z,4.30
2023-04-04T09:15:56.534Z,4.90
2023-04-04T09:18:24.151Z,4.68
2023-04-04T09:20:51.557Z,5.10
2023-04-04T09:23:20.914Z,4.68
2023-04-04T09:28:22.507Z,4.53
2023-04-04T09:30:51.670Z,4.78
2023-04-04T09:33:24.184Z,4.40
2023-04-04T09:36:05.317Z,4.15
2023-04-04T09:38:32.715Z,4.40
2023-04-04T09:41:00.110Z,4.25
2023-04-04T09:43:31.070Z,4.53
2023-04-04T09:46:00.458Z,3.65
2023-04-04T09:48:33.123Z,4.57
2023-04-04T09:51:01.021Z,4.43
2023-04-04T09:53:28.513Z,4.50
2023-04-04T09:55:57.347Z,4.32
2023-04-04T09:58:32.122Z,4.97
2023-04-04T10:01:02.809Z,4.10
2023-04-04T10:03:31.253Z,4.32
2023-04-04T10:06:06.774Z,4.40
2023-04-04T10:08:37.491Z,4.00
2023-04-04T10:13:40.669Z,4.78
2023-04-04T10:18:36.953Z,3.85
2023-04-04T10:21:15.696Z,4.32
2023-04-04T10:23:46.824Z,4.72
2023-04-04T10:26:14.180Z,5.38
2023-04-04T10:28:42.604Z,4.13
2023-04-04T10:31:25.930Z,4.32
2023-04-04T10:34:20.918Z,4.97
2023-04-04T10:36:54.599Z,4.07
2023-04-04T10:39:26.625Z,4.53
2023-04-04T10:41:56.667Z,3.55
2023-04-04T10:44:34.893Z,3.88
2023-04-04T10:47:23.488Z,3.40
2023-04-04T10:49:52.111Z,3.22
2023-04-04T10:52:21.502Z,3.15
2023-04-04T10:54:57.534Z,3.88
2023-04-04T10:57:25.825Z,3.95
2023-04-04T11:00:02.311Z,3.90
2023-04-04T11:03:00.412Z,4.40
2023-04-04T11:05:46.921Z,3.67
2023-04-04T11:08:25.492Z,2.90
2023-04-04T11:10:54.731Z,4.30
2023-04-04T11:13:26.222Z,3.40
2023-04-04T11:16:00.482Z,3.78
2023-04-04T11:18:42.955Z,3.75
2023-04-04T11:23:50.360Z,3.45
2023-04-04T11:26:28.050Z,3.78
2023-04-04T11:29:04.081Z,3.72
2023-04-04T11:31:47.994Z,3.50
2023-04-04T11:34:29.776Z,3.05
2023-04-04T11:36:58.077Z,3.60
2023-04-04T11:39:34.464Z,3.40
2023-04-04T11:42:08.477Z,3.70
2023-04-04T11:44:48.912Z,4.32
2023-04-04T11:47:20.165Z,3.22
2023-04-04T11:49:48.077Z,3.87
2023-04-04T11:52:17.910Z,3.28
2023-04-04T11:54:47.802Z,3.28
2023-04-04T11:57:17.099Z,3.45
2023-04-04T11:59:49.504Z,4.30
2023-04-04T12:02:21.867Z,2.90
2023-04-04T12:07:19.014Z,2.95
2023-04-04T12:09:46.377Z,4.00
2023-04-04T12:12:16.387Z,3.10
2023-04-04T12:14:44.441Z,2.30
2023-04-04T12:17:12.134Z,2.40
2023-04-04T12:19:40.783Z,2.97
2023-04-04T12:22:08.615Z,3.88
2023-04-04T12:24:39.310Z,3.40
2023-04-04T12:27:07.300Z,3.42
2023-04-04T12:29:37.583Z,3.83
2023-04-04T12:32:06.547Z,3.55
2023-04-04T12:34:36.421Z,2.60
2023-04-04T12:37:04.417Z,3.75
2023-04-04T12:39:32.184Z,3.10
2023-04-04T12:42:00.291Z,3.08
2023-04-04T12:44:29.407Z,2.92
2023-04-04T12:47:02.302Z,3.38
2023-04-04T12:49:35.033Z,3.58
2023-04-04T12:52:04.934Z,3.45
2023-04-04T12:54:34.074Z,2.97
2023-04-04T12:57:04.515Z,3.58
2023-04-04T12:59:34.418Z,4.72
2023-04-04T13:02:03.183Z,3.80
2023-04-04T13:04:31.583Z,3.20
2023-04-04T13:07:00.440Z,4.38
2023-04-04T13:09:30.522Z,3.00
2023-04-04T13:12:08.808Z,4.32
2023-04-04T13:15:01.782Z,4.35
2023-04-04T13:17:46.607Z,3.75
2023-04-04T13:20:17.057Z,2.95
2023-04-04T13:22:44.799Z,4.55
2023-04-04T13:25:12.444Z,4.30
2023-04-04T13:27:41.521Z,3.83
2023-04-04T13:30:10.139Z,4.10
2023-04-04T13:32:38.810Z,4.00
2023-04-04T13:35:06.663Z,4.32
2023-04-04T13:37:33.900Z,3.63
2023-04-04T13:40:01.103Z,4.57
2023-04-04T13:42:31.472Z,4.13
2023-04-04T13:44:58.861Z,4.35
2023-04-04T13:47:27.653Z,3.67
2023-04-04T13:49:55.406Z,4.32
2023-04-04T13:52:23.776Z,3.10
2023-04-04T13:54:51.304Z,4.28
2023-04-04T13:57:18.506Z,4.68
2023-04-04T13:59:45.705Z,3.42
2023-04-04T14:02:13.001Z,4.35
2023-04-04T14:04:40.470Z,3.53
2023-04-04T14:07:07.715Z,3.33
2023-04-04T14:09:34.890Z,4.35
2023-04-04T14:12:02.124Z,3.58
2023-04-04T14:14:29.374Z,4.65
2023-04-04T14:16:57.119Z,3.70
2023-04-04T14:19:24.718Z,3.50
2023-04-04T14:21:51.896Z,3.58
2023-04-04T14:24:19.765Z,3.30
2023-04-04T14:26:46.997Z,3.30
2023-04-04T14:29:14.209Z,2.78
2023-04-04T14:31:41.457Z,3.20
2023-04-04T14:34:08.900Z,3.53
2023-04-04T14:36:36.594Z,3.80
2023-04-04T14:39:04.004Z,3.92
2023-04-04T14:41:31.545Z,2.95
2023-04-04T14:43:58.768Z,3.75
2023-04-04T14:46:26.529Z,3.33
2023-04-04T14:48:53.833Z,3.90
2023-04-04T14:51:21.099Z,3.33
2023-04-04T14:53:48.929Z,3.85
2023-04-04T14:56:17.255Z,4.85
2023-04-04T14:58:44.955Z,4.53
2023-04-04T15:01:12.914Z,3.42
2023-04-04T15:03:40.731Z,4.88
2023-04-04T15:06:09.241Z,4.38
2023-04-04T15:08:36.822Z,3.90
2023-04-04T15:11:04.212Z,4.13
2023-04-04T15:13:32.075Z,3.78
2023-04-04T15:16:18.553Z,5.10
2023-04-04T15:56:06.065Z,4.55
2023-04-04T15:58:33.552Z,4.25
2023-04-04T16:01:01.147Z,3.88
2023-04-04T16:03:28.576Z,3.53
2023-04-04T16:06:52.063Z,4.43
2023-04-04T16:10:11.870Z,4.00
2023-04-04T16:12:51.299Z,3.85
2023-04-04T16:15:19.456Z,5.10
2023-04-04T16:17:47.191Z,5.15
2023-04-04T16:20:14.524Z,4.75
2023-04-04T16:22:41.982Z,4.68
2023-04-04T16:25:09.514Z,4.47
2023-04-04T16:27:37.677Z,4.00
2023-04-04T16:30:05.645Z,3.92
2023-04-04T16:32:34.592Z,4.20
2023-04-04T16:35:01.998Z,4.78
2023-04-04T16:37:29.392Z,4.15
2023-04-04T16:40:02.941Z,4.18
2023-04-04T16:42:32.906Z,4.20
2023-04-04T16:45:04.461Z,4.18
2023-04-04T16:47:32.051Z,4.82
2023-04-04T16:50:00.219Z,4.90
2023-04-04T16:52:27.594Z,4.53
2023-04-04T16:59:32.087Z,3.60
2023-04-04T17:01:59.938Z,4.85
2023-04-04T17:04:27.789Z,4.57
2023-04-04T17:06:55.573Z,3.83
2023-04-04T17:09:23.328Z,4.38
2023-04-04T17:11:51.148Z,4.03
2023-04-04T17:14:19.275Z,4.25
2023-04-04T17:16:50.739Z,3.72
2023-04-04T17:19:19.683Z,3.45
2023-04-04T17:30:24.562Z,4.38
2023-04-04T17:32:54.420Z,4.70
2023-04-04T17:35:21.899Z,3.97
2023-04-04T17:37:49.053Z,4.20
2023-04-04T17:40:16.498Z,4.10
2023-04-04T17:42:44.076Z,4.82
2023-04-04T17:45:12.335Z,3.92
2023-04-04T17:47:39.843Z,4.75
2023-04-04T17:50:07.545Z,4.13
2023-04-04T17:52:34.678Z,4.88
2023-04-04T17:55:02.221Z,3.95
2023-04-04T17:57:29.668Z,4.53
2023-04-04T17:59:57.015Z,4.88
2023-04-04T18:02:24.213Z,4.72
2023-04-04T18:04:52.103Z,3.70
2023-04-04T18:07:19.378Z,3.97
2023-04-04T18:09:46.814Z,4.45
2023-04-04T18:12:14.193Z,4.95
2023-04-04T18:14:41.430Z,3.97
2023-04-04T18:17:09.235Z,3.47
2023-04-04T18:22:04.457Z,3.55
2023-04-04T18:24:31.803Z,3.47
2023-04-04T18:43:41.863Z,3.78
2023-04-04T18:46:09.256Z,3.13
2023-04-04T18:48:36.770Z,3.25
2023-04-04T18:51:04.525Z,3.40
2023-04-04T18:53:31.954Z,4.13
2023-04-04T18:55:59.350Z,2.72
2023-04-04T18:58:27.219Z,3.00
2023-04-04T19:00:56.040Z,3.38
2023-04-04T19:03:23.554Z,4.53
2023-04-04T19:05:53.113Z,3.40
2023-04-04T19:08:20.326Z,3.83
2023-04-04T19:10:50.934Z,2.67
2023-04-04T19:13:18.812Z,3.65
2023-04-04T19:15:47.253Z,3.30
2023-04-04T19:18:15.014Z,3.90
2023-04-04T19:20:43.743Z,3.55
2023-04-04T19:23:11.042Z,4.15
2023-04-04T19:25:38.605Z,3.45
2023-04-04T19:28:06.234Z,3.92
2023-04-04T19:30:47.615Z,3.70
2023-04-04T19:33:18.794Z,4.50
2023-04-04T19:35:54.498Z,3.50
2023-04-04T19:38:24.063Z,3.88
2023-04-04T19:40:55.491Z,3.70
2023-04-04T19:43:27.552Z,5.18
2023-04-04T19:45:59.793Z,4.47
2023-04-04T19:53:38.989Z,4.03
2023-04-04T19:56:10.855Z,4.82
2023-04-04T19:58:38.879Z,4.20
2023-04-04T20:01:07.366Z,4.32
2023-04-04T20:03:38.900Z,4.55
2023-04-04T20:06:32.655Z,4.38
2023-04-04T20:09:03.051Z,4.10
2023-04-04T20:11:32.377Z,4.88
2023-04-04T20:14:05.877Z,4.50
2023-04-04T20:16:33.581Z,4.88
2023-04-04T20:19:03.272Z,4.60
2023-04-04T20:21:34.070Z,3.20
2023-04-04T20:24:12.305Z,3.80
2023-04-04T20:26:46.826Z,3.97
2023-04-04T20:29:17.018Z,3.95
2023-04-04T20:31:54.155Z,3.80
2023-04-04T20:34:45.491Z,3.50
2023-04-04T20:37:12.852Z,3.15
2023-04-04T20:39:48.806Z,3.63
2023-04-04T20:42:28.083Z,3.60
2023-04-04T20:45:00.939Z,3.55
2023-04-04T20:47:52.070Z,5.03
2023-04-04T20:50:39.607Z,4.57
2023-04-04T20:53:07.487Z,4.28
2023-04-04T20:55:35.805Z,3.88
2023-04-04T20:58:28.399Z,3.78
2023-04-04T21:03:28.639Z,3.03
2023-04-04T21:06:01.251Z,3.40
2023-04-04T21:08:50.370Z,3.95
2023-04-04T21:11:29.145Z,3.08
2023-04-04T21:13:57.143Z,4.03
2023-04-04T21:16:26.723Z,3.25
2023-04-04T21:18:59.547Z,3.50
2023-04-04T21:21:27.778Z,3.90
2023-04-04T21:24:00.678Z,3.72
2023-04-04T21:26:32.178Z,3.35
2023-04-04T21:29:06.226Z,3.58
2023-04-04T21:31:39.727Z,3.10
2023-04-04T21:34:09.455Z,2.88
2023-04-04T21:36:36.708Z,2.70
2023-04-04T21:39:08.376Z,3.28
2023-04-04T21:41:36.358Z,3.22
2023-04-04T21:44:06.260Z,4.05
2023-04-04T21:46:36.343Z,4.55
2023-04-04T21:49:04.254Z,5.63
2023-04-04T21:51:31.720Z,4.97
2023-04-04T21:54:01.162Z,3.72
2023-04-04T21:56:31.684Z,4.63
2023-04-04T21:59:04.307Z,3.95
2023-04-04T22:01:32.378Z,3.70
2023-04-04T22:03:59.972Z,4.00
2023-04-04T22:06:28.006Z,4.28
2023-04-04T22:08:57.960Z,4.25
2023-04-04T22:11:27.317Z,3.75
2023-04-04T22:14:07.447Z,4.38
2023-04-04T22:16:43.059Z,5.63
2023-04-04T22:19:18.984Z,3.92
2023-04-04T22:21:49.742Z,4.40
2023-04-04T22:24:18.808Z,3.55
2023-04-04T22:26:47.045Z,3.30
2023-04-04T22:29:14.432Z,3.58
2023-04-04T22:31:42.030Z,3.53
2023-04-04T22:34:09.652Z,3.90
2023-04-04T22:36:38.689Z,3.67
2023-04-04T22:39:06.277Z,4.65
2023-04-04T22:41:33.721Z,4.35
2023-04-04T22:44:00.850Z,3.75
2023-04-04T22:46:29.337Z,4.07
2023-04-04T22:49:06.450Z,5.70
2023-04-04T22:51:45.424Z,4.45
2023-04-04T22:54:15.225Z,4.45
2023-04-04T22:56:42.633Z,4.72
2023-04-04T22:59:09.958Z,4.53
2023-04-04T23:01:37.645Z,4.03
2023-04-04T23:04:05.042Z,3.53
2023-04-04T23:06:32.686Z,3.47
2023-04-04T23:08:59.931Z,3.60
2023-04-04T23:11:27.599Z,3.33
2023-04-04T23:13:57.113Z,3.88
2023-04-04T23:16:26.545Z,2.90
2023-04-04T23:18:54.002Z,4.75
2023-04-04T23:21:22.171Z,3.28
2023-04-04T23:23:49.686Z,4.93
2023-04-04T23:26:17.064Z,3.53
2023-04-04T23:28:44.353Z,3.90
2023-04-04T23:31:12.036Z,3.58
2023-04-04T23:33:39.338Z,5.10
2023-04-04T23:36:07.276Z,3.08
2023-04-04T23:38:34.692Z,4.00
2023-04-04T23:41:02.257Z,3.90
2023-04-04T23:43:29.407Z,3.67
2023-04-04T23:45:56.636Z,3.20
2023-04-04T23:48:23.894Z,3.70
2023-04-04T23:50:54.436Z,4.13
2023-04-04T23:53:25.943Z,3.72
2023-04-04T23:55:53.576Z,3.60
2023-04-04T23:58:24.712Z,3.83
